sensor_id;sensor_type;location;lat;lon;timestamp;P1;durP1;ratioP1;P2;durP2;ratioP2
77206;SDS011;66190;50.708;7.906;2023-02-05T00:01:30;9.25;;;2.10;;
77206;SDS011;66190;50.708;7.906;2023-02-05T00:03:56;11.00;;;2.97;;
77206;SDS011;66190;50.708;7.906;2023-02-05T00:06:21;8.38;;;2.33;;
77206;SDS011;66190;50.708;7.906;2023-02-05T00:08:47;13.83;;;2.60;;
77206;SDS011;66190;50.708;7.906;2023-02-05T00:11:13;10.88;;;2.35;;
77206;SDS011;66190;50.708;7.906;2023-02-05T00:13:39;12.53;;;2.70;;
77206;SDS011;66190;50.708;7.906;2023-02-05T00:16:09;11.70;;;2.72;;
77206;SDS011;66190;50.708;7.906;2023-02-05T00:18:41;14.07;;;2.72;;
77206;SDS011;66190;50.708;7.906;2023-02-05T00:21:07;9.88;;;2.40;;
77206;SDS011;66190;50.708;7.906;2023-02-05T00:23:33;7.97;;;1.97;;
77206;SDS011;66190;50.708;7.906;2023-02-05T00:26:00;12.25;;;2.75;;
77206;SDS011;66190;50.708;7.906;2023-02-05T00:28:26;10.68;;;2.67;;
77206;SDS011;66190;50.708;7.906;2023-02-05T00:30:52;8.65;;;2.55;;
77206;SDS011;66190;50.708;7.906;2023-02-05T00:33:17;11.00;;;2.30;;
77206;SDS011;66190;50.708;7.906;2023-02-05T00:35:43;8.33;;;2.00;;
77206;SDS011;66190;50.708;7.906;2023-02-05T00:38:10;8.00;;;2.20;;
77206;SDS011;66190;50.708;7.906;2023-02-05T00:40:36;8.95;;;2.40;;
77206;SDS011;66190;50.708;7.906;2023-02-05T00:43:01;12.67;;;2.70;;
77206;SDS011;66190;50.708;7.906;2023-02-05T00:45:27;13.45;;;2.97;;
77206;SDS011;66190;50.708;7.906;2023-02-05T00:47:58;11.00;;;2.55;;
77206;SDS011;66190;50.708;7.906;2023-02-05T00:50:30;11.10;;;2.60;;
77206;SDS011;66190;50.708;7.906;2023-02-05T00:52:57;7.95;;;2.17;;
77206;SDS011;66190;50.708;7.906;2023-02-05T00:55:23;13.77;;;2.40;;
77206;SDS011;66190;50.708;7.906;2023-02-05T00:57:48;10.53;;;2.33;;
77206;SDS011;66190;50.708;7.906;2023-02-05T01:00:15;7.72;;;2.35;;
77206;SDS011;66190;50.708;7.906;2023-02-05T01:02:41;11.17;;;2.30;;
77206;SDS011;66190;50.708;7.906;2023-02-05T01:05:07;10.85;;;2.72;;
77206;SDS011;66190;50.708;7.906;2023-02-05T01:07:33;11.27;;;2.70;;
77206;SDS011;66190;50.708;7.906;2023-02-05T01:09:58;10.10;;;2.33;;
77206;SDS011;66190;50.708;7.906;2023-02-05T01:12:24;10.10;;;2.27;;
77206;SDS011;66190;50.708;7.906;2023-02-05T01:14:50;9.50;;;2.45;;
77206;SDS011;66190;50.708;7.906;2023-02-05T01:17:17;9.68;;;2.17;;
77206;SDS011;66190;50.708;7.906;2023-02-05T01:19:43;10.25;;;2.30;;
77206;SDS011;66190;50.708;7.906;2023-02-05T01:22:09;11.27;;;2.35;;
77206;SDS011;66190;50.708;7.906;2023-02-05T01:24:35;9.70;;;2.50;;
77206;SDS011;66190;50.708;7.906;2023-02-05T01:27:01;11.73;;;2.60;;
77206;SDS011;66190;50.708;7.906;2023-02-05T01:29:27;12.32;;;2.85;;
77206;SDS011;66190;50.708;7.906;2023-02-05T01:31:53;12.20;;;2.55;;
77206;SDS011;66190;50.708;7.906;2023-02-05T01:34:19;11.73;;;2.30;;
77206;SDS011;66190;50.708;7.906;2023-02-05T01:36:45;12.35;;;2.45;;
77206;SDS011;66190;50.708;7.906;2023-02-05T01:39:11;12.95;;;2.80;;
77206;SDS011;66190;50.708;7.906;2023-02-05T01:41:37;9.73;;;2.70;;
77206;SDS011;66190;50.708;7.906;2023-02-05T01:44:12;10.80;;;3.22;;
77206;SDS011;66190;50.708;7.906;2023-02-05T01:46:44;11.15;;;2.55;;
77206;SDS011;66190;50.708;7.906;2023-02-05T01:49:13;10.98;;;2.53;;
77206;SDS011;66190;50.708;7.906;2023-02-05T01:51:41;8.75;;;2.50;;
77206;SDS011;66190;50.708;7.906;2023-02-05T01:54:09;11.30;;;2.83;;
77206;SDS011;66190;50.708;7.906;2023-02-05T01:56:44;11.52;;;3.13;;
77206;SDS011;66190;50.708;7.906;2023-02-05T01:59:20;10.30;;;2.72;;
77206;SDS011;66190;50.708;7.906;2023-02-05T02:01:49;11.88;;;2.42;;
77206;SDS011;66190;50.708;7.906;2023-02-05T02:04:19;12.23;;;2.63;;
77206;SDS011;66190;50.708;7.906;2023-02-05T02:07:00;11.87;;;2.70;;
77206;SDS011;66190;50.708;7.906;2023-02-05T02:09:26;14.07;;;3.22;;
77206;SDS011;66190;50.708;7.906;2023-02-05T02:11:52;11.43;;;2.45;;
77206;SDS011;66190;50.708;7.906;2023-02-05T02:14:20;10.87;;;2.73;;
77206;SDS011;66190;50.708;7.906;2023-02-05T02:16:47;9.77;;;2.67;;
77206;SDS011;66190;50.708;7.906;2023-02-05T02:19:17;9.52;;;2.58;;
77206;SDS011;66190;50.708;7.906;2023-02-05T02:22:08;10.75;;;2.38;;
77206;SDS011;66190;50.708;7.906;2023-02-05T02:24:47;12.30;;;2.70;;
77206;SDS011;66190;50.708;7.906;2023-02-05T02:29:56;11.25;;;2.22;;
77206;SDS011;66190;50.708;7.906;2023-02-05T02:32:32;10.27;;;2.90;;
77206;SDS011;66190;50.708;7.906;2023-02-05T02:35:11;11.80;;;4.63;;
77206;SDS011;66190;50.708;7.906;2023-02-05T02:37:47;12.77;;;2.97;;
77206;SDS011;66190;50.708;7.906;2023-02-05T02:40:20;8.98;;;2.60;;
77206;SDS011;66190;50.708;7.906;2023-02-05T02:42:54;9.63;;;2.80;;
77206;SDS011;66190;50.708;7.906;2023-02-05T02:45:33;11.95;;;3.13;;
77206;SDS011;66190;50.708;7.906;2023-02-05T02:48:01;12.60;;;2.97;;
77206;SDS011;66190;50.708;7.906;2023-02-05T02:50:30;11.67;;;3.17;;
77206;SDS011;66190;50.708;7.906;2023-02-05T02:53:03;10.38;;;3.17;;
77206;SDS011;66190;50.708;7.906;2023-02-05T02:55:36;11.63;;;2.95;;
77206;SDS011;66190;50.708;7.906;2023-02-05T02:58:07;11.38;;;2.75;;
77206;SDS011;66190;50.708;7.906;2023-02-05T03:00:40;13.63;;;2.72;;
77206;SDS011;66190;50.708;7.906;2023-02-05T03:03:09;13.20;;;3.50;;
77206;SDS011;66190;50.708;7.906;2023-02-05T03:05:37;10.57;;;3.03;;
77206;SDS011;66190;50.708;7.906;2023-02-05T03:08:10;11.48;;;3.47;;
77206;SDS011;66190;50.708;7.906;2023-02-05T03:11:03;13.45;;;3.33;;
77206;SDS011;66190;50.708;7.906;2023-02-05T03:13:36;11.02;;;2.92;;
77206;SDS011;66190;50.708;7.906;2023-02-05T03:16:01;9.47;;;2.83;;
77206;SDS011;66190;50.708;7.906;2023-02-05T03:18:28;9.98;;;3.25;;
77206;SDS011;66190;50.708;7.906;2023-02-05T03:20:55;11.57;;;3.40;;
77206;SDS011;66190;50.708;7.906;2023-02-05T03:23:23;12.50;;;3.45;;
77206;SDS011;66190;50.708;7.906;2023-02-05T03:25:51;16.00;;;3.50;;
77206;SDS011;66190;50.708;7.906;2023-02-05T03:28:16;19.77;;;4.13;;
77206;SDS011;66190;50.708;7.906;2023-02-05T03:30:49;13.77;;;3.70;;
77206;SDS011;66190;50.708;7.906;2023-02-05T03:33:46;12.07;;;3.28;;
77206;SDS011;66190;50.708;7.906;2023-02-05T03:42:40;11.57;;;3.30;;
77206;SDS011;66190;50.708;7.906;2023-02-05T03:45:26;12.53;;;3.47;;
77206;SDS011;66190;50.708;7.906;2023-02-05T03:51:19;15.15;;;3.78;;
77206;SDS011;66190;50.708;7.906;2023-02-05T03:54:04;11.95;;;3.67;;
77206;SDS011;66190;50.708;7.906;2023-02-05T03:59:41;13.20;;;3.53;;
77206;SDS011;66190;50.708;7.906;2023-02-05T04:02:08;13.65;;;3.72;;
77206;SDS011;66190;50.708;7.906;2023-02-05T04:04:34;13.90;;;3.78;;
77206;SDS011;66190;50.708;7.906;2023-02-05T04:06:59;11.40;;;3.67;;
77206;SDS011;66190;50.708;7.906;2023-02-05T04:09:26;17.83;;;3.85;;
77206;SDS011;66190;50.708;7.906;2023-02-05T04:11:51;12.85;;;3.70;;
77206;SDS011;66190;50.708;7.906;2023-02-05T04:14:17;13.80;;;3.83;;
77206;SDS011;66190;50.708;7.906;2023-02-05T04:16:43;19.17;;;4.60;;
77206;SDS011;66190;50.708;7.906;2023-02-05T04:19:08;18.63;;;4.97;;
77206;SDS011;66190;50.708;7.906;2023-02-05T04:21:34;14.03;;;4.70;;
77206;SDS011;66190;50.708;7.906;2023-02-05T04:23:59;16.20;;;4.50;;
77206;SDS011;66190;50.708;7.906;2023-02-05T04:26:25;14.43;;;4.47;;
77206;SDS011;66190;50.708;7.906;2023-02-05T04:28:51;19.13;;;4.87;;
77206;SDS011;66190;50.708;7.906;2023-02-05T04:31:16;15.60;;;5.15;;
77206;SDS011;66190;50.708;7.906;2023-02-05T04:33:42;12.50;;;4.50;;
77206;SDS011;66190;50.708;7.906;2023-02-05T04:36:08;20.52;;;4.70;;
77206;SDS011;66190;50.708;7.906;2023-02-05T04:38:34;20.27;;;5.03;;
77206;SDS011;66190;50.708;7.906;2023-02-05T04:40:59;20.42;;;5.03;;
77206;SDS011;66190;50.708;7.906;2023-02-05T04:43:25;17.90;;;5.83;;
77206;SDS011;66190;50.708;7.906;2023-02-05T04:45:51;14.45;;;4.68;;
77206;SDS011;66190;50.708;7.906;2023-02-05T04:48:17;18.20;;;4.27;;
77206;SDS011;66190;50.708;7.906;2023-02-05T04:50:43;19.30;;;4.97;;
77206;SDS011;66190;50.708;7.906;2023-02-05T04:53:08;19.65;;;5.13;;
77206;SDS011;66190;50.708;7.906;2023-02-05T04:55:34;16.97;;;4.83;;
77206;SDS011;66190;50.708;7.906;2023-02-05T04:58:00;17.80;;;5.43;;
77206;SDS011;66190;50.708;7.906;2023-02-05T05:00:26;16.02;;;4.85;;
77206;SDS011;66190;50.708;7.906;2023-02-05T05:02:52;16.08;;;5.00;;
77206;SDS011;66190;50.708;7.906;2023-02-05T05:05:17;18.63;;;5.27;;
77206;SDS011;66190;50.708;7.906;2023-02-05T05:07:43;18.88;;;5.57;;
77206;SDS011;66190;50.708;7.906;2023-02-05T05:10:09;18.30;;;5.20;;
77206;SDS011;66190;50.708;7.906;2023-02-05T05:12:36;20.08;;;5.60;;
77206;SDS011;66190;50.708;7.906;2023-02-05T05:15:02;18.17;;;5.95;;
77206;SDS011;66190;50.708;7.906;2023-02-05T05:17:29;20.15;;;5.53;;
77206;SDS011;66190;50.708;7.906;2023-02-05T05:19:55;23.10;;;6.67;;
77206;SDS011;66190;50.708;7.906;2023-02-05T05:22:21;27.15;;;8.70;;
77206;SDS011;66190;50.708;7.906;2023-02-05T05:24:47;27.88;;;9.57;;
77206;SDS011;66190;50.708;7.906;2023-02-05T05:27:12;23.92;;;7.82;;
77206;SDS011;66190;50.708;7.906;2023-02-05T05:29:38;19.83;;;6.47;;
77206;SDS011;66190;50.708;7.906;2023-02-05T05:32:04;26.25;;;6.95;;
77206;SDS011;66190;50.708;7.906;2023-02-05T05:34:29;21.67;;;6.23;;
77206;SDS011;66190;50.708;7.906;2023-02-05T05:36:55;18.85;;;5.95;;
77206;SDS011;66190;50.708;7.906;2023-02-05T05:39:21;19.67;;;6.30;;
77206;SDS011;66190;50.708;7.906;2023-02-05T05:42:05;21.30;;;5.90;;
77206;SDS011;66190;50.708;7.906;2023-02-05T05:44:49;23.88;;;7.47;;
77206;SDS011;66190;50.708;7.906;2023-02-05T05:47:18;25.48;;;9.27;;
77206;SDS011;66190;50.708;7.906;2023-02-05T05:49:44;22.87;;;8.13;;
77206;SDS011;66190;50.708;7.906;2023-02-05T05:52:10;20.55;;;7.18;;
77206;SDS011;66190;50.708;7.906;2023-02-05T05:54:36;21.63;;;6.70;;
77206;SDS011;66190;50.708;7.906;2023-02-05T05:57:02;17.30;;;5.88;;
77206;SDS011;66190;50.708;7.906;2023-02-05T05:59:27;23.23;;;6.47;;
77206;SDS011;66190;50.708;7.906;2023-02-05T06:01:53;19.83;;;5.57;;
77206;SDS011;66190;50.708;7.906;2023-02-05T06:04:19;20.27;;;6.28;;
77206;SDS011;66190;50.708;7.906;2023-02-05T06:06:44;21.13;;;5.87;;
77206;SDS011;66190;50.708;7.906;2023-02-05T06:09:10;17.97;;;6.73;;
77206;SDS011;66190;50.708;7.906;2023-02-05T06:11:36;23.00;;;6.47;;
77206;SDS011;66190;50.708;7.906;2023-02-05T06:14:01;26.97;;;6.97;;
77206;SDS011;66190;50.708;7.906;2023-02-05T06:16:27;24.30;;;6.90;;
77206;SDS011;66190;50.708;7.906;2023-02-05T06:18:53;23.47;;;6.87;;
77206;SDS011;66190;50.708;7.906;2023-02-05T06:21:19;24.48;;;7.32;;
77206;SDS011;66190;50.708;7.906;2023-02-05T06:23:45;25.70;;;7.30;;
77206;SDS011;66190;50.708;7.906;2023-02-05T06:26:11;28.43;;;7.10;;
77206;SDS011;66190;50.708;7.906;2023-02-05T06:28:37;38.30;;;9.57;;
77206;SDS011;66190;50.708;7.906;2023-02-05T06:31:02;42.13;;;10.53;;
77206;SDS011;66190;50.708;7.906;2023-02-05T06:33:28;42.38;;;13.70;;
77206;SDS011;66190;50.708;7.906;2023-02-05T06:35:54;49.77;;;16.37;;
77206;SDS011;66190;50.708;7.906;2023-02-05T06:38:20;35.28;;;11.27;;
77206;SDS011;66190;50.708;7.906;2023-02-05T06:40:46;61.63;;;13.97;;
77206;SDS011;66190;50.708;7.906;2023-02-05T06:43:12;98.95;;;17.08;;
77206;SDS011;66190;50.708;7.906;2023-02-05T06:45:38;85.43;;;13.88;;
77206;SDS011;66190;50.708;7.906;2023-02-05T06:48:04;82.43;;;17.30;;
77206;SDS011;66190;50.708;7.906;2023-02-05T06:50:30;75.85;;;16.10;;
77206;SDS011;66190;50.708;7.906;2023-02-05T06:52:55;63.97;;;14.88;;
77206;SDS011;66190;50.708;7.906;2023-02-05T06:55:21;51.67;;;15.48;;
77206;SDS011;66190;50.708;7.906;2023-02-05T06:57:47;55.77;;;16.30;;
77206;SDS011;66190;50.708;7.906;2023-02-05T07:00:12;30.48;;;9.20;;
77206;SDS011;66190;50.708;7.906;2023-02-05T07:02:38;27.90;;;7.73;;
77206;SDS011;66190;50.708;7.906;2023-02-05T07:05:04;24.42;;;8.40;;
77206;SDS011;66190;50.708;7.906;2023-02-05T07:07:30;26.60;;;7.95;;
77206;SDS011;66190;50.708;7.906;2023-02-05T07:09:57;23.43;;;8.37;;
77206;SDS011;66190;50.708;7.906;2023-02-05T07:12:23;20.35;;;6.72;;
77206;SDS011;66190;50.708;7.906;2023-02-05T07:14:49;19.80;;;6.47;;
77206;SDS011;66190;50.708;7.906;2023-02-05T07:17:15;17.33;;;5.77;;
77206;SDS011;66190;50.708;7.906;2023-02-05T07:19:40;27.23;;;8.70;;
77206;SDS011;66190;50.708;7.906;2023-02-05T07:22:06;26.77;;;9.77;;
77206;SDS011;66190;50.708;7.906;2023-02-05T07:24:32;33.22;;;12.70;;
77206;SDS011;66190;50.708;7.906;2023-02-05T07:26:57;30.90;;;10.90;;
77206;SDS011;66190;50.708;7.906;2023-02-05T07:29:23;29.65;;;13.45;;
77206;SDS011;66190;50.708;7.906;2023-02-05T07:31:49;26.20;;;9.33;;
77206;SDS011;66190;50.708;7.906;2023-02-05T07:34:15;28.38;;;9.82;;
77206;SDS011;66190;50.708;7.906;2023-02-05T07:36:41;33.70;;;12.70;;
77206;SDS011;66190;50.708;7.906;2023-02-05T07:39:06;37.40;;;12.67;;
77206;SDS011;66190;50.708;7.906;2023-02-05T07:41:32;34.40;;;12.93;;
77206;SDS011;66190;50.708;7.906;2023-02-05T07:43:58;43.22;;;13.98;;
77206;SDS011;66190;50.708;7.906;2023-02-05T07:46:24;36.35;;;14.40;;
77206;SDS011;66190;50.708;7.906;2023-02-05T07:48:49;90.90;;;14.07;;
77206;SDS011;66190;50.708;7.906;2023-02-05T07:51:16;63.97;;;17.57;;
77206;SDS011;66190;50.708;7.906;2023-02-05T07:53:43;58.17;;;15.13;;
77206;SDS011;66190;50.708;7.906;2023-02-05T07:56:10;51.95;;;16.48;;
77206;SDS011;66190;50.708;7.906;2023-02-05T07:58:35;32.60;;;11.68;;
77206;SDS011;66190;50.708;7.906;2023-02-05T08:01:02;34.90;;;13.03;;
77206;SDS011;66190;50.708;7.906;2023-02-05T08:03:28;57.15;;;13.98;;
77206;SDS011;66190;50.708;7.906;2023-02-05T08:05:54;41.15;;;8.35;;
77206;SDS011;66190;50.708;7.906;2023-02-05T08:08:20;32.23;;;9.53;;
77206;SDS011;66190;50.708;7.906;2023-02-05T08:10:46;39.45;;;11.35;;
77206;SDS011;66190;50.708;7.906;2023-02-05T08:13:12;27.15;;;10.27;;
77206;SDS011;66190;50.708;7.906;2023-02-05T08:15:38;31.23;;;11.53;;
77206;SDS011;66190;50.708;7.906;2023-02-05T08:18:04;27.00;;;8.52;;
77206;SDS011;66190;50.708;7.906;2023-02-05T08:20:29;17.57;;;5.70;;
77206;SDS011;66190;50.708;7.906;2023-02-05T08:22:55;18.15;;;6.05;;
77206;SDS011;66190;50.708;7.906;2023-02-05T08:25:21;34.27;;;11.83;;
77206;SDS011;66190;50.708;7.906;2023-02-05T08:27:47;30.73;;;10.65;;
77206;SDS011;66190;50.708;7.906;2023-02-05T08:30:14;25.48;;;9.45;;
77206;SDS011;66190;50.708;7.906;2023-02-05T08:32:41;20.20;;;7.57;;
77206;SDS011;66190;50.708;7.906;2023-02-05T08:35:06;18.13;;;6.70;;
77206;SDS011;66190;50.708;7.906;2023-02-05T08:37:32;24.25;;;10.35;;
77206;SDS011;66190;50.708;7.906;2023-02-05T08:39:58;20.97;;;7.97;;
77206;SDS011;66190;50.708;7.906;2023-02-05T08:42:24;27.00;;;9.57;;
77206;SDS011;66190;50.708;7.906;2023-02-05T08:44:50;31.57;;;12.13;;
77206;SDS011;66190;50.708;7.906;2023-02-05T08:47:19;29.02;;;11.50;;
77206;SDS011;66190;50.708;7.906;2023-02-05T08:49:45;31.95;;;12.23;;
77206;SDS011;66190;50.708;7.906;2023-02-05T08:52:11;58.97;;;21.93;;
77206;SDS011;66190;50.708;7.906;2023-02-05T08:54:37;28.02;;;13.07;;
77206;SDS011;66190;50.708;7.906;2023-02-05T08:57:02;24.60;;;14.05;;
77206;SDS011;66190;50.708;7.906;2023-02-05T08:59:28;18.90;;;7.07;;
77206;SDS011;66190;50.708;7.906;2023-02-05T09:01:54;18.15;;;7.10;;
77206;SDS011;66190;50.708;7.906;2023-02-05T09:04:20;17.90;;;7.68;;
77206;SDS011;66190;50.708;7.906;2023-02-05T09:06:47;23.83;;;10.45;;
77206;SDS011;66190;50.708;7.906;2023-02-05T09:09:13;18.77;;;7.00;;
77206;SDS011;66190;50.708;7.906;2023-02-05T09:11:39;23.77;;;9.50;;
77206;SDS011;66190;50.708;7.906;2023-02-05T09:14:05;22.00;;;9.40;;
77206;SDS011;66190;50.708;7.906;2023-02-05T09:16:31;26.23;;;11.23;;
77206;SDS011;66190;50.708;7.906;2023-02-05T09:18:57;47.35;;;20.30;;
77206;SDS011;66190;50.708;7.906;2023-02-05T09:21:23;31.63;;;13.75;;
77206;SDS011;66190;50.708;7.906;2023-02-05T09:23:49;53.03;;;23.03;;
77206;SDS011;66190;50.708;7.906;2023-02-05T09:26:16;62.10;;;29.23;;
77206;SDS011;66190;50.708;7.906;2023-02-05T09:28:42;27.35;;;10.70;;
77206;SDS011;66190;50.708;7.906;2023-02-05T09:31:09;31.75;;;14.68;;
77206;SDS011;66190;50.708;7.906;2023-02-05T09:33:38;30.42;;;12.95;;
77206;SDS011;66190;50.708;7.906;2023-02-05T09:36:07;24.77;;;10.98;;
77206;SDS011;66190;50.708;7.906;2023-02-05T09:38:38;30.13;;;13.55;;
77206;SDS011;66190;50.708;7.906;2023-02-05T09:46:20;19.85;;;8.43;;
77206;SDS011;66190;50.708;7.906;2023-02-05T09:51:37;15.70;;;7.30;;
77206;SDS011;66190;50.708;7.906;2023-02-05T09:54:14;13.70;;;5.50;;
77206;SDS011;66190;50.708;7.906;2023-02-05T09:56:47;12.25;;;4.97;;
77206;SDS011;66190;50.708;7.906;2023-02-05T09:59:16;9.77;;;3.42;;
77206;SDS011;66190;50.708;7.906;2023-02-05T10:01:48;15.23;;;5.57;;
77206;SDS011;66190;50.708;7.906;2023-02-05T10:04:17;13.98;;;5.60;;
77206;SDS011;66190;50.708;7.906;2023-02-05T10:06:56;20.00;;;5.80;;
77206;SDS011;66190;50.708;7.906;2023-02-05T10:12:26;15.18;;;5.65;;
77206;SDS011;66190;50.708;7.906;2023-02-05T10:23:16;20.80;;;9.05;;
77206;SDS011;66190;50.708;7.906;2023-02-05T10:34:18;18.10;;;7.00;;
77206;SDS011;66190;50.708;7.906;2023-02-05T10:36:55;50.47;;;20.73;;
77206;SDS011;66190;50.708;7.906;2023-02-05T10:39:21;55.28;;;25.52;;
77206;SDS011;66190;50.708;7.906;2023-02-05T10:41:58;22.73;;;10.67;;
77206;SDS011;66190;50.708;7.906;2023-02-05T10:44:38;21.08;;;9.15;;
77206;SDS011;66190;50.708;7.906;2023-02-05T10:47:09;18.63;;;7.75;;
77206;SDS011;66190;50.708;7.906;2023-02-05T10:53:04;16.05;;;7.28;;
77206;SDS011;66190;50.708;7.906;2023-02-05T10:55:30;16.17;;;6.43;;
77206;SDS011;66190;50.708;7.906;2023-02-05T10:57:56;14.98;;;5.80;;
77206;SDS011;66190;50.708;7.906;2023-02-05T11:00:22;14.50;;;6.87;;
77206;SDS011;66190;50.708;7.906;2023-02-05T11:02:50;14.77;;;6.20;;
77206;SDS011;66190;50.708;7.906;2023-02-05T11:08:04;14.80;;;6.35;;
77206;SDS011;66190;50.708;7.906;2023-02-05T11:10:51;16.52;;;7.43;;
77206;SDS011;66190;50.708;7.906;2023-02-05T11:13:18;15.40;;;6.33;;
77206;SDS011;66190;50.708;7.906;2023-02-05T11:15:52;14.32;;;5.15;;
77206;SDS011;66190;50.708;7.906;2023-02-05T11:18:21;11.40;;;5.15;;
77206;SDS011;66190;50.708;7.906;2023-02-05T11:21:00;10.63;;;3.95;;
77206;SDS011;66190;50.708;7.906;2023-02-05T11:23:29;11.50;;;5.47;;
77206;SDS011;66190;50.708;7.906;2023-02-05T11:26:00;11.13;;;4.27;;
77206;SDS011;66190;50.708;7.906;2023-02-05T11:28:32;9.80;;;3.33;;
77206;SDS011;66190;50.708;7.906;2023-02-05T11:36:35;8.07;;;2.35;;
77206;SDS011;66190;50.708;7.906;2023-02-05T11:39:03;6.73;;;2.50;;
77206;SDS011;66190;50.708;7.906;2023-02-05T11:41:31;7.78;;;2.17;;
77206;SDS011;66190;50.708;7.906;2023-02-05T11:44:16;5.75;;;1.40;;
77206;SDS011;66190;50.708;7.906;2023-02-05T11:46:42;5.63;;;1.70;;
77206;SDS011;66190;50.708;7.906;2023-02-05T11:49:13;6.18;;;1.52;;
77206;SDS011;66190;50.708;7.906;2023-02-05T11:51:46;5.07;;;1.30;;
77206;SDS011;66190;50.708;7.906;2023-02-05T11:54:18;6.63;;;1.40;;
77206;SDS011;66190;50.708;7.906;2023-02-05T11:57:03;4.72;;;1.20;;
77206;SDS011;66190;50.708;7.906;2023-02-05T11:59:58;11.65;;;4.88;;
77206;SDS011;66190;50.708;7.906;2023-02-05T12:04:59;4.47;;;0.93;;
77206;SDS011;66190;50.708;7.906;2023-02-05T12:07:42;6.10;;;2.67;;
77206;SDS011;66190;50.708;7.906;2023-02-05T12:10:16;5.05;;;1.75;;
77206;SDS011;66190;50.708;7.906;2023-02-05T12:13:00;4.63;;;1.50;;
77206;SDS011;66190;50.708;7.906;2023-02-05T12:23:49;3.28;;;0.70;;
77206;SDS011;66190;50.708;7.906;2023-02-05T12:26:30;2.58;;;0.50;;
77206;SDS011;66190;50.708;7.906;2023-02-05T12:29:21;4.80;;;1.05;;
77206;SDS011;66190;50.708;7.906;2023-02-05T12:32:12;2.23;;;0.60;;
77206;SDS011;66190;50.708;7.906;2023-02-05T12:38:02;4.07;;;0.98;;
77206;SDS011;66190;50.708;7.906;2023-02-05T12:51:29;2.95;;;0.60;;
77206;SDS011;66190;50.708;7.906;2023-02-05T12:57:07;4.95;;;1.00;;
77206;SDS011;66190;50.708;7.906;2023-02-05T13:07:58;4.10;;;0.90;;
77206;SDS011;66190;50.708;7.906;2023-02-05T13:13:08;6.33;;;1.40;;
77206;SDS011;66190;50.708;7.906;2023-02-05T13:15:39;6.38;;;1.90;;
77206;SDS011;66190;50.708;7.906;2023-02-05T13:18:14;43.30;;;17.30;;
77206;SDS011;66190;50.708;7.906;2023-02-05T13:20:42;20.38;;;9.27;;
77206;SDS011;66190;50.708;7.906;2023-02-05T13:23:38;10.38;;;5.57;;
77206;SDS011;66190;50.708;7.906;2023-02-05T13:26:27;9.37;;;4.57;;
77206;SDS011;66190;50.708;7.906;2023-02-05T13:29:19;10.43;;;3.42;;
77206;SDS011;66190;50.708;7.906;2023-02-05T13:31:49;10.35;;;3.63;;
77206;SDS011;66190;50.708;7.906;2023-02-05T13:34:18;11.93;;;4.07;;
77206;SDS011;66190;50.708;7.906;2023-02-05T13:59:04;6.35;;;1.67;;
77206;SDS011;66190;50.708;7.906;2023-02-05T14:01:51;4.70;;;0.90;;
77206;SDS011;66190;50.708;7.906;2023-02-05T14:04:37;7.32;;;2.58;;
77206;SDS011;66190;50.708;7.906;2023-02-05T14:07:07;8.10;;;2.92;;
77206;SDS011;66190;50.708;7.906;2023-02-05T14:09:48;10.65;;;4.32;;
77206;SDS011;66190;50.708;7.906;2023-02-05T14:12:24;4.50;;;1.10;;
77206;SDS011;66190;50.708;7.906;2023-02-05T14:18:00;7.38;;;2.50;;
77206;SDS011;66190;50.708;7.906;2023-02-05T14:22:57;4.13;;;1.00;;
77206;SDS011;66190;50.708;7.906;2023-02-05T14:30:37;3.13;;;0.50;;
77206;SDS011;66190;50.708;7.906;2023-02-05T14:36:24;3.20;;;0.70;;
77206;SDS011;66190;50.708;7.906;2023-02-05T14:41:23;4.75;;;1.00;;
77206;SDS011;66190;50.708;7.906;2023-02-05T14:43:56;3.53;;;0.60;;
77206;SDS011;66190;50.708;7.906;2023-02-05T14:49:23;3.17;;;0.70;;
77206;SDS011;66190;50.708;7.906;2023-02-05T14:51:53;3.45;;;0.60;;
77206;SDS011;66190;50.708;7.906;2023-02-05T14:54:46;3.90;;;0.80;;
77206;SDS011;66190;50.708;7.906;2023-02-05T15:08:11;3.08;;;0.55;;
77206;SDS011;66190;50.708;7.906;2023-02-05T15:13:38;3.17;;;0.80;;
77206;SDS011;66190;50.708;7.906;2023-02-05T15:16:05;4.10;;;0.90;;
77206;SDS011;66190;50.708;7.906;2023-02-05T15:18:31;4.60;;;1.10;;
77206;SDS011;66190;50.708;7.906;2023-02-05T15:21:02;4.40;;;1.10;;
77206;SDS011;66190;50.708;7.906;2023-02-05T15:23:33;4.80;;;1.30;;
77206;SDS011;66190;50.708;7.906;2023-02-05T15:26:04;5.20;;;1.75;;
77206;SDS011;66190;50.708;7.906;2023-02-05T15:28:35;2.78;;;0.50;;
77206;SDS011;66190;50.708;7.906;2023-02-05T15:34:01;3.88;;;0.90;;
77206;SDS011;66190;50.708;7.906;2023-02-05T15:36:40;4.40;;;0.80;;
77206;SDS011;66190;50.708;7.906;2023-02-05T15:39:22;3.53;;;0.80;;
77206;SDS011;66190;50.708;7.906;2023-02-05T15:41:54;3.28;;;0.73;;
77206;SDS011;66190;50.708;7.906;2023-02-05T15:44:29;4.03;;;0.80;;
77206;SDS011;66190;50.708;7.906;2023-02-05T15:46:57;3.55;;;0.75;;
77206;SDS011;66190;50.708;7.906;2023-02-05T15:49:37;4.63;;;1.43;;
77206;SDS011;66190;50.708;7.906;2023-02-05T15:52:07;4.68;;;1.63;;
77206;SDS011;66190;50.708;7.906;2023-02-05T15:54:41;4.30;;;1.00;;
77206;SDS011;66190;50.708;7.906;2023-02-05T15:57:06;5.32;;;1.80;;
77206;SDS011;66190;50.708;7.906;2023-02-05T15:59:46;4.45;;;1.05;;
77206;SDS011;66190;50.708;7.906;2023-02-05T16:02:22;3.90;;;0.95;;
77206;SDS011;66190;50.708;7.906;2023-02-05T16:07:20;4.40;;;1.27;;
77206;SDS011;66190;50.708;7.906;2023-02-05T16:09:55;4.70;;;1.17;;
77206;SDS011;66190;50.708;7.906;2023-02-05T16:12:23;4.72;;;1.40;;
77206;SDS011;66190;50.708;7.906;2023-02-05T16:14:56;5.00;;;1.70;;
77206;SDS011;66190;50.708;7.906;2023-02-05T16:17:24;5.82;;;1.50;;
77206;SDS011;66190;50.708;7.906;2023-02-05T16:20:40;5.90;;;1.80;;
77206;SDS011;66190;50.708;7.906;2023-02-05T16:22:49;6.00;;;2.20;;
77206;SDS011;66190;50.708;7.906;2023-02-05T16:25:40;5.40;;;1.63;;
77206;SDS011;66190;50.708;7.906;2023-02-05T16:28:15;5.32;;;1.63;;
77206;SDS011;66190;50.708;7.906;2023-02-05T16:31:01;5.80;;;2.17;;
77206;SDS011;66190;50.708;7.906;2023-02-05T16:33:32;5.40;;;2.10;;
77206;SDS011;66190;50.708;7.906;2023-02-05T16:36:03;5.67;;;2.10;;
77206;SDS011;66190;50.708;7.906;2023-02-05T16:38:31;5.97;;;2.17;;
77206;SDS011;66190;50.708;7.906;2023-02-05T16:40:58;5.22;;;1.95;;
77206;SDS011;66190;50.708;7.906;2023-02-05T16:43:36;5.15;;;1.77;;
77206;SDS011;66190;50.708;7.906;2023-02-05T16:48:38;5.83;;;2.20;;
77206;SDS011;66190;50.708;7.906;2023-02-05T16:51:24;5.68;;;2.00;;
77206;SDS011;66190;50.708;7.906;2023-02-05T16:53:52;9.43;;;2.35;;
77206;SDS011;66190;50.708;7.906;2023-02-05T16:56:22;7.32;;;2.90;;
77206;SDS011;66190;50.708;7.906;2023-02-05T16:58:53;10.48;;;2.63;;
77206;SDS011;66190;50.708;7.906;2023-02-05T17:01:22;8.77;;;2.50;;
77206;SDS011;66190;50.708;7.906;2023-02-05T17:03:56;8.27;;;2.72;;
77206;SDS011;66190;50.708;7.906;2023-02-05T17:06:24;7.90;;;3.00;;
77206;SDS011;66190;50.708;7.906;2023-02-05T17:08:57;7.43;;;2.70;;
77206;SDS011;66190;50.708;7.906;2023-02-05T17:16:58;10.20;;;3.30;;
77206;SDS011;66190;50.708;7.906;2023-02-05T17:19:29;13.65;;;4.57;;
77206;SDS011;66190;50.708;7.906;2023-02-05T17:24:42;8.27;;;2.97;;
77206;SDS011;66190;50.708;7.906;2023-02-05T17:27:17;7.03;;;2.63;;
77206;SDS011;66190;50.708;7.906;2023-02-05T17:29:55;8.27;;;2.65;;
77206;SDS011;66190;50.708;7.906;2023-02-05T17:32:22;7.80;;;3.47;;
77206;SDS011;66190;50.708;7.906;2023-02-05T17:34:49;6.40;;;2.60;;
77206;SDS011;66190;50.708;7.906;2023-02-05T17:37:14;6.80;;;2.80;;